createdAt,value
2022-09-21T00:00:50.186Z,12.55
2022-09-21T00:06:02.449Z,12.35
2022-09-21T00:11:06.247Z,13.05
2022-09-21T00:16:09.930Z,10.85
2022-09-21T00:21:16.254Z,9.55
2022-09-21T00:26:21.409Z,12.52
2022-09-21T00:31:25.369Z,8.25
2022-09-21T00:36:30.715Z,22.30
2022-09-21T00:41:34.939Z,10.80
2022-09-21T00:46:40.093Z,7.63
2022-09-21T00:51:45.392Z,9.57
2022-09-21T01:01:52.090Z,9.00
2022-09-21T01:06:57.682Z,12.73
2022-09-21T01:12:15.318Z,12.32
2022-09-21T01:17:30.159Z,8.45
2022-09-21T01:22:46.038Z,13.75
2022-09-21T01:28:04.304Z,10.80
2022-09-21T01:33:14.303Z,7.93
2022-09-21T01:38:23.043Z,10.48
2022-09-21T01:43:38.672Z,9.48
2022-09-21T01:48:46.951Z,12.73
2022-09-21T01:53:56.003Z,8.75
2022-09-21T01:59:06.829Z,11.55
2022-09-21T02:04:13.253Z,9.13
2022-09-21T02:09:17.830Z,12.07
2022-09-21T02:14:23.953Z,8.17
2022-09-21T02:19:37.360Z,8.23
2022-09-21T02:24:43.402Z,7.30
2022-09-21T02:29:52.036Z,11.68
2022-09-21T02:35:03.325Z,8.68
2022-09-21T02:40:16.079Z,8.57
2022-09-21T02:45:22.635Z,8.32
2022-09-21T02:50:33.527Z,8.98
2022-09-21T02:55:37.713Z,8.73
2022-09-21T03:00:41.127Z,12.70
2022-09-21T03:05:48.686Z,9.73
2022-09-21T03:10:52.193Z,9.23
2022-09-21T03:16:00.556Z,11.68
2022-09-21T03:21:05.376Z,10.18
2022-09-21T03:26:08.818Z,13.17
2022-09-21T03:31:12.301Z,9.32
2022-09-21T03:36:16.986Z,9.77
2022-09-21T03:41:20.830Z,10.80
2022-09-21T03:46:24.740Z,7.65
2022-09-21T03:51:31.478Z,8.07
2022-09-21T03:56:34.585Z,11.00
2022-09-21T04:01:37.730Z,11.80
2022-09-21T04:06:42.123Z,7.28
2022-09-21T04:11:45.551Z,12.13
2022-09-21T04:16:48.612Z,11.60
2022-09-21T04:21:53.269Z,10.13
2022-09-21T04:26:56.410Z,9.20
2022-09-21T04:31:59.546Z,8.00
2022-09-21T04:37:03.994Z,10.30
2022-09-21T04:42:07.572Z,10.43
2022-09-21T04:47:11.896Z,10.57
2022-09-21T04:52:19.106Z,8.85
2022-09-21T04:57:22.513Z,7.57
2022-09-21T05:02:25.723Z,11.63
2022-09-21T05:07:30.191Z,15.05
2022-09-21T05:12:38.573Z,8.33
2022-09-21T05:17:44.065Z,9.85
2022-09-21T05:22:48.570Z,9.30
2022-09-21T05:27:51.644Z,9.65
2022-09-21T05:32:59.603Z,20.23
2022-09-21T05:38:11.056Z,11.52
2022-09-21T05:43:14.817Z,9.50
2022-09-21T05:48:19.879Z,10.68
2022-09-21T05:53:50.639Z,13.45
2022-09-21T05:59:01.851Z,10.18
2022-09-21T06:04:09.963Z,10.57
2022-09-21T06:09:14.755Z,6.82
2022-09-21T06:14:24.603Z,15.77
2022-09-21T06:19:27.783Z,15.40
2022-09-21T06:24:32.184Z,8.73
2022-09-21T06:29:35.345Z,9.45
2022-09-21T06:34:38.493Z,13.65
2022-09-21T06:39:43.326Z,10.45
2022-09-21T06:44:46.682Z,12.23
2022-09-21T06:49:50.100Z,11.18
2022-09-21T06:54:54.537Z,10.35
2022-09-21T06:59:58.221Z,12.60
2022-09-21T07:05:02.119Z,12.85
2022-09-21T07:10:14.327Z,8.45
2022-09-21T07:15:19.577Z,11.07
2022-09-21T07:20:22.748Z,10.55
2022-09-21T07:25:27.211Z,8.93
2022-09-21T07:30:30.576Z,9.33
2022-09-21T07:35:34.089Z,8.90
2022-09-21T07:40:40.030Z,8.07
2022-09-21T07:45:43.629Z,7.17
2022-09-21T07:50:46.949Z,4.78
2022-09-21T07:55:51.481Z,7.53
2022-09-21T08:00:54.580Z,4.85
2022-09-21T08:05:59.592Z,4.75
2022-09-21T08:11:05.091Z,5.07
2022-09-21T08:16:08.897Z,7.88
2022-09-21T08:21:12.443Z,5.20
2022-09-21T08:26:19.542Z,6.13
2022-09-21T08:31:24.288Z,4.75
2022-09-21T08:36:27.671Z,3.72
2022-09-21T08:41:49.510Z,6.47
2022-09-21T08:47:03.597Z,4.30
2022-09-21T08:52:15.557Z,6.63
2022-09-21T08:57:22.055Z,6.45
2022-09-21T09:02:47.633Z,7.05
2022-09-21T09:08:15.716Z,3.60
2022-09-21T09:13:41.759Z,3.83
2022-09-21T09:18:49.326Z,5.03
2022-09-21T09:24:00.434Z,4.50
2022-09-21T09:29:12.011Z,4.35
2022-09-21T09:34:18.330Z,4.57
2022-09-21T09:39:21.511Z,2.78
2022-09-21T09:44:42.044Z,4.57
2022-09-21T09:50:01.170Z,3.50
2022-09-21T09:55:16.948Z,2.10
2022-09-21T10:00:22.379Z,3.05
2022-09-21T10:05:32.282Z,2.88
2022-09-21T10:10:37.766Z,2.47
2022-09-21T10:20:56.466Z,4.57
2022-09-21T10:26:03.769Z,1.33
2022-09-21T10:31:18.242Z,2.75
2022-09-21T10:36:30.913Z,1.50
2022-09-21T10:41:36.411Z,1.45
2022-09-21T10:46:41.473Z,1.50
2022-09-21T10:51:48.054Z,2.17
2022-09-21T10:56:54.088Z,1.92
2022-09-21T11:02:01.388Z,1.83
2022-09-21T11:07:12.807Z,3.60
2022-09-21T11:12:34.022Z,1.10
2022-09-21T11:17:43.902Z,2.25
2022-09-21T11:22:58.277Z,2.40
2022-09-21T11:28:13.396Z,2.83
2022-09-21T11:38:43.139Z,1.73
2022-09-21T11:44:09.574Z,1.80
2022-09-21T11:50:07.680Z,0.95
2022-09-21T11:55:34.840Z,1.60
2022-09-21T12:00:51.303Z,1.52
2022-09-21T12:06:06.384Z,7.07
2022-09-21T12:11:19.906Z,4.30
2022-09-21T12:16:33.831Z,1.60
2022-09-21T12:21:44.171Z,3.33
2022-09-21T12:26:52.258Z,3.78
2022-09-21T12:32:03.372Z,3.25
2022-09-21T12:37:14.174Z,1.17
2022-09-21T12:42:38.844Z,1.88
2022-09-21T12:47:52.735Z,1.73
2022-09-21T12:52:58.194Z,2.87
2022-09-21T12:58:15.933Z,1.35
2022-09-21T13:03:28.737Z,0.98
2022-09-21T13:08:36.758Z,2.75
2022-09-21T13:13:51.278Z,1.90
2022-09-21T13:18:56.656Z,1.70
2022-09-21T13:24:03.645Z,1.88
2022-09-21T13:29:29.668Z,1.90
2022-09-21T13:34:35.457Z,2.33
2022-09-21T13:39:43.949Z,1.88
2022-09-21T13:44:47.665Z,1.80
2022-09-21T13:49:54.963Z,1.30
2022-09-21T13:55:04.977Z,3.72
2022-09-21T14:00:33.486Z,1.95
2022-09-21T14:05:43.181Z,2.88
2022-09-21T14:10:54.476Z,1.70
2022-09-21T14:16:34.528Z,2.10
2022-09-21T14:21:38.002Z,3.33
2022-09-21T14:26:52.992Z,2.83
2022-09-21T14:31:59.566Z,0.93
2022-09-21T14:37:19.301Z,0.60
2022-09-21T14:42:28.200Z,1.15
2022-09-21T14:48:05.893Z,1.63
2022-09-21T14:53:35.562Z,3.33
2022-09-21T14:58:53.810Z,1.45
2022-09-21T15:04:16.577Z,4.03
2022-09-21T15:10:07.989Z,1.48
2022-09-21T15:15:27.497Z,1.92
2022-09-21T15:20:32.261Z,0.75
2022-09-21T15:25:35.484Z,1.27
2022-09-21T15:30:45.880Z,1.15
2022-09-21T15:35:49.698Z,0.80
2022-09-21T15:40:53.139Z,2.80
2022-09-21T15:45:59.598Z,2.10
2022-09-21T15:51:08.090Z,1.98
2022-09-21T15:56:19.213Z,1.45
2022-09-21T16:01:24.218Z,1.13
2022-09-21T16:06:34.123Z,1.33
2022-09-21T16:11:37.839Z,0.90
2022-09-21T16:17:20.138Z,2.75
2022-09-21T16:22:29.307Z,1.90
2022-09-21T16:27:32.857Z,2.08
2022-09-21T16:32:36.127Z,2.95
2022-09-21T16:37:42.151Z,2.28
2022-09-21T16:42:46.073Z,3.70
2022-09-21T16:47:50.867Z,3.28
2022-09-21T16:52:56.081Z,1.83
2022-09-21T16:58:00.263Z,2.00
2022-09-21T17:03:04.224Z,3.20
2022-09-21T17:08:10.951Z,3.80
2022-09-21T17:13:17.006Z,5.78
2022-09-21T17:18:20.241Z,2.67
2022-09-21T17:23:29.247Z,4.30
2022-09-21T17:28:32.576Z,3.55
2022-09-21T17:33:36.010Z,2.15
2022-09-21T17:38:42.422Z,2.55
2022-09-21T17:43:52.657Z,6.38
2022-09-21T17:48:56.946Z,2.10
2022-09-21T17:54:02.629Z,3.25
2022-09-21T17:59:20.595Z,6.70
2022-09-21T18:04:26.742Z,5.55
2022-09-21T18:09:32.258Z,6.97
2022-09-21T18:14:46.386Z,4.40
2022-09-21T18:20:04.798Z,3.05
2022-09-21T18:25:16.839Z,7.85
2022-09-21T18:30:20.172Z,9.40
2022-09-21T18:35:40.542Z,6.78
2022-09-21T18:40:57.118Z,12.35
2022-09-21T18:46:03.961Z,7.93
2022-09-21T18:51:15.750Z,7.82
2022-09-21T18:56:20.855Z,8.30
2022-09-21T19:01:26.853Z,8.55
2022-09-21T19:06:40.208Z,10.43
2022-09-21T19:11:52.020Z,7.45
2022-09-21T19:17:07.311Z,8.70
2022-09-21T19:27:28.610Z,10.05
2022-09-21T19:32:36.093Z,14.25
2022-09-21T19:37:39.516Z,8.80
2022-09-21T19:43:01.183Z,15.07
2022-09-21T19:48:09.463Z,10.70
2022-09-21T19:53:31.972Z,13.38
2022-09-21T19:58:55.667Z,12.02
2022-09-21T20:03:59.930Z,14.90
2022-09-21T20:09:09.964Z,12.88
2022-09-21T20:14:22.850Z,10.23
2022-09-21T20:19:36.520Z,10.90
2022-09-21T20:24:48.313Z,9.88
2022-09-21T20:29:52.883Z,11.55
2022-09-21T20:34:55.993Z,11.13
2022-09-21T20:39:59.040Z,10.85
2022-09-21T20:45:03.935Z,9.98
2022-09-21T20:50:12.756Z,10.30
2022-09-21T20:55:17.399Z,7.35
2022-09-21T21:00:21.938Z,10.97
2022-09-21T21:05:25.227Z,10.43
2022-09-21T21:10:28.320Z,8.38
2022-09-21T21:15:33.057Z,7.88
2022-09-21T21:20:37.263Z,8.70
2022-09-21T21:25:40.538Z,9.48
2022-09-21T21:30:45.009Z,8.57
2022-09-21T21:35:49.371Z,8.37
2022-09-21T21:40:55.530Z,9.23
2022-09-21T21:46:02.485Z,11.25
2022-09-21T21:51:06.825Z,9.82
2022-09-21T21:56:12.306Z,12.75
2022-09-21T22:06:24.704Z,13.20
2022-09-21T22:11:29.117Z,18.98
2022-09-21T22:16:35.406Z,16.40
2022-09-21T22:21:41.555Z,14.10
2022-09-21T22:26:45.719Z,15.07
2022-09-21T22:31:50.989Z,12.20
2022-09-21T22:36:56.354Z,12.07
2022-09-21T22:42:00.178Z,13.00
2022-09-21T22:47:04.906Z,15.98
2022-09-21T22:52:08.065Z,11.07
2022-09-21T22:57:11.103Z,12.65
2022-09-21T23:02:15.880Z,14.07
2022-09-21T23:07:19.006Z,10.37
2022-09-21T23:12:21.963Z,15.93
2022-09-21T23:17:28.332Z,9.18
2022-09-21T23:22:31.546Z,10.00
2022-09-21T23:27:34.835Z,7.28
2022-09-21T23:32:39.188Z,9.38
2022-09-21T23:37:42.368Z,7.90
2022-09-21T23:42:45.387Z,9.82
2022-09-21T23:47:49.655Z,9.10
2022-09-21T23:52:52.820Z,8.18
2022-09-21T23:57:55.852Z,10.00
